Time;durP1;ratioP1;P1;durP2;ratioP2;P2;SDS_P1;SDS_P2;PMS_P1;PMS_P2;Temp;Humidity;BMP_temperature;BMP_pressure;BME280_temperature;BME280_humidity;BME280_pressure;Samples;Min_cycle;Max_cycle;Signal;HPM_P1;HPM_P2
2023/08/24 00:00:38;;;;;;;;;8.80;6.40;;;;;;;;5030937;28;8807;-87
2023/08/24 00:03:06;;;;;;;;;7.00;7.00;;;;;;;;5031899;28;8852;-88
2023/08/24 00:05:36;;;;;;;;;8.60;8.60;;;;;;;;5031092;28;8860;-87
2023/08/24 00:08:06;;;;;;;;;7.00;7.00;;;;;;;;5032164;28;8934;-86
2023/08/24 00:10:33;;;;;;;;;7.20;7.20;;;;;;;;5031432;28;8895;-87
2023/08/24 00:13:00;;;;;;;;;6.20;6.20;;;;;;;;5033199;28;8865;-87
2023/08/24 00:15:28;;;;;;;;;8.00;6.00;;;;;;;;5032869;28;8840;-87
2023/08/24 00:17:55;;;;;;;;;6.00;6.00;;;;;;;;5031122;28;8868;-86
2023/08/24 00:20:23;;;;;;;;;5.80;5.80;;;;;;;;5031382;28;8850;-87
2023/08/24 00:22:50;;;;;;;;;7.20;7.20;;;;;;;;5031323;28;8879;-87
2023/08/24 00:25:19;;;;;;;;;9.20;7.80;;;;;;;;5031346;28;8864;-87
2023/08/24 00:27:46;;;;;;;;;8.40;8.40;;;;;;;;5031198;28;8888;-90
2023/08/24 00:30:14;;;;;;;;;8.80;8.80;;;;;;;;5031224;28;8844;-88
2023/08/24 00:32:41;;;;;;;;;10.60;8.80;;;;;;;;5031797;28;8864;-87
2023/08/24 00:35:11;;;;;;;;;7.80;7.80;;;;;;;;5035788;28;8868;-87
2023/08/24 00:37:38;;;;;;;;;7.40;7.00;;;;;;;;5022956;28;8880;-89
2023/08/24 00:40:09;;;;;;;;;9.40;7.40;;;;;;;;5031925;28;8939;-86
2023/08/24 00:42:40;;;;;;;;;8.60;7.00;;;;;;;;5031431;28;8880;-87
2023/08/24 00:45:09;;;;;;;;;5.60;5.60;;;;;;;;5031549;28;8860;-86
2023/08/24 00:47:37;;;;;;;;;10.00;8.00;;;;;;;;5030618;28;8868;-84
2023/08/24 00:50:05;;;;;;;;;3.20;3.20;;;;;;;;5031110;28;8868;-86
2023/08/24 00:52:33;;;;;;;;;8.00;8.00;;;;;;;;5024576;28;8875;-85
2023/08/24 00:55:01;;;;;;;;;6.00;6.00;;;;;;;;5024495;28;8957;-87
2023/08/24 00:57:28;;;;;;;;;7.60;7.60;;;;;;;;5030718;28;8875;-86
2023/08/24 00:59:57;;;;;;;;;8.00;8.00;;;;;;;;5031635;28;8868;-85
2023/08/24 01:02:25;;;;;;;;;8.00;8.00;;;;;;;;5018929;28;8830;-86
2023/08/24 01:04:52;;;;;;;;;9.00;9.00;;;;;;;;5032955;28;8868;-86
2023/08/24 01:07:19;;;;;;;;;7.80;7.80;;;;;;;;5034962;28;8881;-87
2023/08/24 01:09:47;;;;;;;;;7.00;7.00;;;;;;;;5036348;28;8856;-87
2023/08/24 01:12:21;;;;;;;;;8.00;8.00;;;;;;;;5036655;28;8890;-86
2023/08/24 01:14:54;;;;;;;;;9.40;9.40;;;;;;;;5036429;28;8967;-86
2023/08/24 01:17:27;;;;;;;;;6.60;6.60;;;;;;;;5035885;28;9002;-87
2023/08/24 01:19:58;;;;;;;;;8.00;8.00;;;;;;;;5029434;28;9652;-88
2023/08/24 01:22:34;;;;;;;;;8.60;8.60;;;;;;;;5030813;28;8854;-89
2023/08/24 01:25:08;;;;;;;;;7.40;7.40;;;;;;;;5029443;28;8867;-87
2023/08/24 01:27:37;;;;;;;;;7.00;7.00;;;;;;;;5032331;28;8867;-87
2023/08/24 01:30:07;;;;;;;;;6.40;6.00;;;;;;;;5029765;28;8870;-87
2023/08/24 01:32:35;;;;;;;;;9.00;7.60;;;;;;;;5029615;28;8844;-87
2023/08/24 01:35:05;;;;;;;;;7.60;7.60;;;;;;;;5029387;28;8872;-87
2023/08/24 01:37:40;;;;;;;;;7.20;7.20;;;;;;;;5020072;28;8880;-86
2023/08/24 01:40:12;;;;;;;;;9.80;9.80;;;;;;;;5030156;28;8860;-87
2023/08/24 01:42:46;;;;;;;;;6.80;6.80;;;;;;;;5025089;28;8871;-87
2023/08/24 01:45:14;;;;;;;;;5.20;5.20;;;;;;;;5023609;28;8844;-87
2023/08/24 01:47:43;;;;;;;;;3.80;3.80;;;;;;;;5030741;28;8862;-87
2023/08/24 01:50:11;;;;;;;;;6.40;6.40;;;;;;;;5030718;28;8961;-87
2023/08/24 01:52:39;;;;;;;;;3.00;3.00;;;;;;;;5025899;28;8894;-86
2023/08/24 01:55:07;;;;;;;;;6.80;6.80;;;;;;;;5023561;28;8922;-87
2023/08/24 01:57:34;;;;;;;;;10.60;9.40;;;;;;;;5028511;28;8852;-86
2023/08/24 02:00:06;;;;;;;;;6.80;6.80;;;;;;;;5026411;28;8882;-87
2023/08/24 02:02:33;;;;;;;;;8.60;8.00;;;;;;;;5029145;28;8825;-87
2023/08/24 02:05:01;;;;;;;;;9.60;8.60;;;;;;;;5029385;28;8888;-88
2023/08/24 02:07:30;;;;;;;;;7.80;6.40;;;;;;;;5029550;28;9010;-86
2023/08/24 02:10:00;;;;;;;;;8.00;8.00;;;;;;;;5030183;28;8990;-87
2023/08/24 02:12:27;;;;;;;;;8.20;8.20;;;;;;;;5030753;28;8844;-87
2023/08/24 02:14:55;;;;;;;;;8.20;5.40;;;;;;;;5029543;28;9007;-87
2023/08/24 02:17:24;;;;;;;;;10.00;8.20;;;;;;;;5029296;28;8882;-86
2023/08/24 02:19:52;;;;;;;;;7.20;7.20;;;;;;;;5029295;28;8852;-87
2023/08/24 02:22:19;;;;;;;;;7.80;7.40;;;;;;;;5029709;28;8918;-87
2023/08/24 02:24:47;;;;;;;;;6.40;4.80;;;;;;;;5029509;28;8842;-86
2023/08/24 02:27:14;;;;;;;;;6.60;6.60;;;;;;;;5029089;28;8863;-87
2023/08/24 02:29:41;;;;;;;;;7.00;7.00;;;;;;;;5029610;28;8906;-87
2023/08/24 02:32:08;;;;;;;;;7.00;7.00;;;;;;;;5028456;28;8878;-87
2023/08/24 02:34:38;;;;;;;;;8.00;8.00;;;;;;;;5029810;28;8898;-86
2023/08/24 02:37:06;;;;;;;;;7.00;7.00;;;;;;;;5020392;28;8857;-88
2023/08/24 02:39:33;;;;;;;;;9.60;9.60;;;;;;;;5030094;28;8876;-85
2023/08/24 02:42:00;;;;;;;;;6.80;6.80;;;;;;;;5032499;28;8852;-87
2023/08/24 02:44:28;;;;;;;;;7.60;7.60;;;;;;;;5034856;28;8826;-87
2023/08/24 02:46:55;;;;;;;;;10.20;9.00;;;;;;;;5038292;28;8887;-85
2023/08/24 02:49:22;;;;;;;;;9.00;9.00;;;;;;;;5038647;28;8890;-87
2023/08/24 02:51:51;;;;;;;;;8.40;8.40;;;;;;;;5039420;28;8870;-86
2023/08/24 02:54:18;;;;;;;;;7.60;7.60;;;;;;;;5037048;28;8975;-88
2023/08/24 02:56:47;;;;;;;;;5.60;5.60;;;;;;;;5032720;28;8911;-87
2023/08/24 02:59:14;;;;;;;;;8.00;8.00;;;;;;;;5031731;28;9667;-87
2023/08/24 03:01:42;;;;;;;;;8.00;8.00;;;;;;;;5032280;28;8812;-86
2023/08/24 03:04:09;;;;;;;;;8.40;8.40;;;;;;;;5032042;28;8868;-85
2023/08/24 03:06:36;;;;;;;;;8.40;8.40;;;;;;;;5031970;28;8836;-87
2023/08/24 03:09:08;;;;;;;;;9.80;9.80;;;;;;;;5031364;28;8857;-87
2023/08/24 03:11:35;;;;;;;;;8.20;6.80;;;;;;;;5032639;28;8878;-90
2023/08/24 03:14:05;;;;;;;;;10.00;9.80;;;;;;;;5031006;28;8882;-88
2023/08/24 03:16:33;;;;;;;;;10.40;10.40;;;;;;;;5033147;28;8860;-88
2023/08/24 03:19:00;;;;;;;;;8.40;8.00;;;;;;;;5033857;28;8852;-87
2023/08/24 03:21:27;;;;;;;;;11.00;9.60;;;;;;;;5034600;28;8860;-88
2023/08/24 03:23:55;;;;;;;;;8.00;8.00;;;;;;;;5034693;28;8898;-88
2023/08/24 03:26:24;;;;;;;;;8.20;8.20;;;;;;;;5032348;28;8860;-88
2023/08/24 03:28:51;;;;;;;;;9.60;9.60;;;;;;;;5031951;28;8848;-89
2023/08/24 03:31:18;;;;;;;;;9.80;9.80;;;;;;;;5031954;28;8792;-87
2023/08/24 03:33:46;;;;;;;;;8.00;8.00;;;;;;;;5030934;28;8868;-86
2023/08/24 03:36:13;;;;;;;;;10.00;9.80;;;;;;;;5032140;28;8995;-87
2023/08/24 03:38:41;;;;;;;;;9.20;9.20;;;;;;;;5032275;28;8876;-87
2023/08/24 03:41:08;;;;;;;;;7.80;7.80;;;;;;;;5030183;28;8917;-87
2023/08/24 03:43:37;;;;;;;;;6.20;6.20;;;;;;;;5032973;28;8986;-87
2023/08/24 03:46:05;;;;;;;;;11.00;9.60;;;;;;;;5031923;28;8972;-88
2023/08/24 03:48:33;;;;;;;;;9.20;9.20;;;;;;;;5031070;28;8884;-87
2023/08/24 03:51:00;;;;;;;;;8.00;8.00;;;;;;;;5031080;28;8880;-87
2023/08/24 03:53:28;;;;;;;;;10.00;8.20;;;;;;;;5032398;28;8868;-88
2023/08/24 03:55:55;;;;;;;;;13.20;11.60;;;;;;;;5031349;28;8860;-86
2023/08/24 03:58:23;;;;;;;;;7.60;7.60;;;;;;;;5031552;28;8895;-88
2023/08/24 04:00:53;;;;;;;;;8.40;8.40;;;;;;;;5031584;28;8800;-85
2023/08/24 04:03:21;;;;;;;;;8.60;8.60;;;;;;;;5031639;28;8874;-85
2023/08/24 04:05:49;;;;;;;;;9.60;9.60;;;;;;;;5035630;28;8848;-88
2023/08/24 04:08:17;;;;;;;;;8.00;7.20;;;;;;;;5035936;28;8849;-83
2023/08/24 04:10:45;;;;;;;;;11.40;11.20;;;;;;;;5030294;28;8868;-80
2023/08/24 04:13:15;;;;;;;;;8.60;7.80;;;;;;;;5029957;28;8868;-79
2023/08/24 04:15:42;;;;;;;;;11.60;7.80;;;;;;;;5031443;28;8903;-80
2023/08/24 04:18:11;;;;;;;;;8.00;8.00;;;;;;;;5032869;28;8868;-79
2023/08/24 04:20:38;;;;;;;;;10.20;8.20;;;;;;;;5035748;28;8856;-80
2023/08/24 04:23:05;;;;;;;;;10.40;8.80;;;;;;;;5036275;28;8844;-83
2023/08/24 04:25:35;;;;;;;;;9.60;9.60;;;;;;;;5036325;28;9023;-84
2023/08/24 04:28:03;;;;;;;;;7.80;7.80;;;;;;;;5035451;28;8876;-83
2023/08/24 04:30:34;;;;;;;;;7.00;7.00;;;;;;;;5032165;28;8781;-83
2023/08/24 04:33:03;;;;;;;;;8.00;8.00;;;;;;;;5029746;28;8878;-83
2023/08/24 04:35:36;;;;;;;;;8.00;8.00;;;;;;;;5031930;28;8841;-84
2023/08/24 04:38:03;;;;;;;;;9.60;9.60;;;;;;;;5032591;28;9682;-82
2023/08/24 04:40:47;;;;;;;;;9.80;9.80;;;;;;;;5029967;28;8864;-84
2023/08/24 04:43:14;;;;;;;;;8.80;8.80;;;;;;;;5022671;28;8897;-82
2023/08/24 04:45:41;;;;;;;;;8.60;8.20;;;;;;;;5029317;28;8967;-82
2023/08/24 04:48:09;;;;;;;;;8.20;7.40;;;;;;;;5029205;28;8852;-85
2023/08/24 04:50:42;;;;;;;;;10.00;10.00;;;;;;;;5030129;28;8860;-83
2023/08/24 04:53:09;;;;;;;;;9.40;8.60;;;;;;;;5029663;28;8868;-84
2023/08/24 04:55:37;;;;;;;;;6.20;6.20;;;;;;;;5031399;28;8898;-83
2023/08/24 04:58:04;;;;;;;;;7.60;7.60;;;;;;;;5024047;28;8978;-83
2023/08/24 05:00:33;;;;;;;;;8.00;6.40;;;;;;;;5029525;28;8781;-82
2023/08/24 05:03:02;;;;;;;;;8.20;8.20;;;;;;;;5028801;28;8860;-83
2023/08/24 05:05:31;;;;;;;;;8.60;8.60;;;;;;;;5028378;28;9002;-82
2023/08/24 05:08:03;;;;;;;;;9.60;9.60;;;;;;;;5028636;28;8844;-83
2023/08/24 05:10:34;;;;;;;;;8.00;8.00;;;;;;;;5028917;28;10548;-82
2023/08/24 05:13:02;;;;;;;;;7.60;7.60;;;;;;;;5028784;28;8888;-83
2023/08/24 05:15:29;;;;;;;;;8.00;8.00;;;;;;;;5028681;28;8890;-78
2023/08/24 05:17:59;;;;;;;;;8.20;8.20;;;;;;;;5028566;28;8848;-71
2023/08/24 05:20:26;;;;;;;;;10.20;7.80;;;;;;;;5028689;28;8852;-78
2023/08/24 05:22:54;;;;;;;;;8.00;8.00;;;;;;;;5028171;28;8856;-72
2023/08/24 05:25:23;;;;;;;;;6.80;6.80;;;;;;;;5027378;28;8872;-72
2023/08/24 05:27:51;;;;;;;;;6.60;6.60;;;;;;;;5028168;28;8874;-73
2023/08/24 05:30:19;;;;;;;;;9.00;9.00;;;;;;;;5019865;28;8859;-73
2023/08/24 05:32:46;;;;;;;;;7.00;7.00;;;;;;;;5041481;28;8849;-73
2023/08/24 05:35:13;;;;;;;;;9.00;9.00;;;;;;;;5027741;28;8856;-73
2023/08/24 05:37:40;;;;;;;;;6.80;6.80;;;;;;;;5027859;28;8856;-73
2023/08/24 05:40:09;;;;;;;;;7.20;7.20;;;;;;;;5027600;28;8860;-73
2023/08/24 05:42:37;;;;;;;;;6.00;6.00;;;;;;;;5027727;28;8848;-73
2023/08/24 05:45:05;;;;;;;;;9.20;9.20;;;;;;;;5027373;28;8990;-72
2023/08/24 05:47:32;;;;;;;;;8.40;8.00;;;;;;;;5027859;28;8852;-73
2023/08/24 05:50:00;;;;;;;;;7.60;7.60;;;;;;;;5017105;28;8991;-73
2023/08/24 05:52:27;;;;;;;;;8.40;7.40;;;;;;;;5029905;28;8901;-72
2023/08/24 05:54:55;;;;;;;;;10.20;8.40;;;;;;;;5017967;28;8876;-73
2023/08/24 05:57:22;;;;;;;;;8.20;8.00;;;;;;;;5029578;28;8872;-73
2023/08/24 05:59:50;;;;;;;;;8.20;7.40;;;;;;;;5030755;28;8985;-73
2023/08/24 06:02:17;;;;;;;;;8.40;8.40;;;;;;;;5029389;28;8802;-73
2023/08/24 06:04:44;;;;;;;;;7.80;7.80;;;;;;;;5027041;28;8880;-77
2023/08/24 06:07:12;;;;;;;;;6.20;6.20;;;;;;;;5027262;28;8872;-79
2023/08/24 06:09:39;;;;;;;;;7.00;6.60;;;;;;;;5027720;28;8867;-74
2023/08/24 06:12:07;;;;;;;;;6.60;6.60;;;;;;;;5028269;28;8890;-78
2023/08/24 06:14:35;;;;;;;;;7.00;7.00;;;;;;;;5028111;28;8880;-72
2023/08/24 06:17:03;;;;;;;;;6.00;6.00;;;;;;;;5027339;28;8848;-71
2023/08/24 06:19:31;;;;;;;;;8.20;5.00;;;;;;;;5027774;28;9651;-80
2023/08/24 06:21:58;;;;;;;;;7.60;7.60;;;;;;;;5026843;28;8863;-75
2023/08/24 06:24:25;;;;;;;;;7.40;7.40;;;;;;;;5027732;28;8919;-73
2023/08/24 06:26:52;;;;;;;;;7.40;7.40;;;;;;;;5027651;28;8860;-74
2023/08/24 06:29:19;;;;;;;;;6.40;6.40;;;;;;;;5027916;28;8970;-74
2023/08/24 06:31:46;;;;;;;;;7.60;7.60;;;;;;;;5026445;28;8824;-77
2023/08/24 06:34:15;;;;;;;;;6.80;6.80;;;;;;;;5027122;28;8868;-76
2023/08/24 06:36:42;;;;;;;;;7.60;6.00;;;;;;;;5026919;28;8848;-72
2023/08/24 06:39:09;;;;;;;;;6.20;6.20;;;;;;;;5027059;28;8966;-74
2023/08/24 06:41:37;;;;;;;;;5.40;5.40;;;;;;;;5026863;28;8875;-77
2023/08/24 06:44:05;;;;;;;;;5.60;5.60;;;;;;;;5026761;28;8961;-75
2023/08/24 06:46:34;;;;;;;;;8.00;8.00;;;;;;;;5027065;28;9650;-73
2023/08/24 06:49:05;;;;;;;;;7.20;7.20;;;;;;;;5027134;28;8879;-73
2023/08/24 06:51:36;;;;;;;;;6.20;6.20;;;;;;;;5027427;28;9700;-72
2023/08/24 06:54:03;;;;;;;;;5.20;5.00;;;;;;;;5026678;28;8864;-75
2023/08/24 06:56:33;;;;;;;;;5.00;5.00;;;;;;;;5027603;28;8949;-74
2023/08/24 06:59:02;;;;;;;;;6.00;6.00;;;;;;;;5026680;28;8991;-73
2023/08/24 07:01:31;;;;;;;;;9.80;8.20;;;;;;;;5026462;28;8921;-73
2023/08/24 07:04:02;;;;;;;;;6.80;6.80;;;;;;;;5027091;28;8863;-74
2023/08/24 07:06:30;;;;;;;;;8.00;8.00;;;;;;;;5027574;28;8898;-83
2023/08/24 07:08:58;;;;;;;;;7.00;7.00;;;;;;;;5026006;28;8959;-73
2023/08/24 07:11:27;;;;;;;;;8.00;8.00;;;;;;;;5026972;28;8864;-75
2023/08/24 07:13:54;;;;;;;;;6.00;6.00;;;;;;;;5026651;28;8867;-75
2023/08/24 07:16:22;;;;;;;;;7.20;7.20;;;;;;;;5027420;28;9749;-74
2023/08/24 07:18:49;;;;;;;;;6.00;6.00;;;;;;;;5027421;28;8984;-73
2023/08/24 07:21:17;;;;;;;;;7.20;7.20;;;;;;;;5028469;28;8856;-78
2023/08/24 07:23:44;;;;;;;;;6.80;6.80;;;;;;;;5028277;28;8887;-72
2023/08/24 07:26:14;;;;;;;;;7.60;5.80;;;;;;;;5029463;28;8860;-74
2023/08/24 07:28:41;;;;;;;;;6.80;6.60;;;;;;;;5030274;28;8935;-75
2023/08/24 07:31:11;;;;;;;;;8.20;8.20;;;;;;;;5032613;28;8800;-72
2023/08/24 07:33:38;;;;;;;;;9.00;9.00;;;;;;;;5034577;28;8872;-75
2023/08/24 07:36:06;;;;;;;;;9.20;9.20;;;;;;;;5032962;28;8872;-76
2023/08/24 07:38:33;;;;;;;;;7.20;7.20;;;;;;;;5018504;28;8860;-75
2023/08/24 07:41:01;;;;;;;;;6.40;6.40;;;;;;;;5032268;28;8866;-77
2023/08/24 07:43:29;;;;;;;;;10.00;8.80;;;;;;;;5031932;28;9030;-73
2023/08/24 07:45:56;;;;;;;;;10.20;9.20;;;;;;;;5030867;28;8891;-75
2023/08/24 07:48:23;;;;;;;;;7.40;7.40;;;;;;;;5032121;28;8864;-81
2023/08/24 07:50:50;;;;;;;;;8.40;8.40;;;;;;;;5031341;28;8915;-81
2023/08/24 07:53:18;;;;;;;;;6.20;6.20;;;;;;;;5031276;28;8840;-73
2023/08/24 07:55:45;;;;;;;;;8.60;8.60;;;;;;;;5031700;28;8864;-73
2023/08/24 07:58:12;;;;;;;;;10.20;8.80;;;;;;;;5030788;28;8856;-82
2023/08/24 08:00:41;;;;;;;;;9.80;9.80;;;;;;;;5029810;28;8777;-74
2023/08/24 08:03:10;;;;;;;;;10.00;9.20;;;;;;;;5031412;28;8959;-72
2023/08/24 08:05:38;;;;;;;;;8.60;8.00;;;;;;;;5030002;28;8887;-75
2023/08/24 08:08:05;;;;;;;;;8.60;8.60;;;;;;;;5029144;28;9754;-73
2023/08/24 08:10:35;;;;;;;;;6.60;6.60;;;;;;;;5029789;28;9006;-77
2023/08/24 08:13:03;;;;;;;;;9.80;8.40;;;;;;;;5029775;28;9632;-74
2023/08/24 08:15:30;;;;;;;;;7.00;6.20;;;;;;;;5029489;28;8886;-71
2023/08/24 08:17:58;;;;;;;;;6.60;6.60;;;;;;;;5029252;28;8894;-73
2023/08/24 08:20:26;;;;;;;;;5.00;5.00;;;;;;;;5028847;28;8848;-72
2023/08/24 08:22:53;;;;;;;;;4.20;4.20;;;;;;;;5029485;28;8867;-72
2023/08/24 08:25:22;;;;;;;;;5.60;5.60;;;;;;;;5029126;28;8949;-74
2023/08/24 08:27:49;;;;;;;;;6.00;4.60;;;;;;;;5029721;28;8852;-72
2023/08/24 08:30:16;;;;;;;;;4.60;4.00;;;;;;;;5028005;28;8864;-72
2023/08/24 08:32:43;;;;;;;;;3.40;3.20;;;;;;;;5029349;28;8864;-73
2023/08/24 08:35:12;;;;;;;;;2.40;2.40;;;;;;;;5028376;28;8862;-72
2023/08/24 08:37:39;;;;;;;;;2.80;2.80;;;;;;;;5029514;28;8867;-72
2023/08/24 08:40:10;;;;;;;;;3.00;3.00;;;;;;;;5028438;28;8848;-72
2023/08/24 08:42:38;;;;;;;;;5.20;3.80;;;;;;;;5027922;28;9659;-72
2023/08/24 08:45:10;;;;;;;;;2.60;2.60;;;;;;;;5028798;28;9046;-72
2023/08/24 08:47:37;;;;;;;;;3.20;3.20;;;;;;;;5028278;28;8849;-75
2023/08/24 08:50:06;;;;;;;;;3.80;3.80;;;;;;;;5029198;28;8852;-72
2023/08/24 08:52:35;;;;;;;;;4.60;3.60;;;;;;;;5029054;28;8856;-72
2023/08/24 08:55:06;;;;;;;;;2.80;2.80;;;;;;;;5029080;28;8874;-74
2023/08/24 08:57:35;;;;;;;;;3.00;3.00;;;;;;;;5028769;28;8861;-72
2023/08/24 09:00:07;;;;;;;;;2.40;2.40;;;;;;;;5031270;28;8852;-72
2023/08/24 09:02:34;;;;;;;;;3.80;2.40;;;;;;;;5031064;28;8812;-72
2023/08/24 09:05:01;;;;;;;;;1.40;1.40;;;;;;;;5032047;28;8866;-72
2023/08/24 09:07:29;;;;;;;;;1.40;1.40;;;;;;;;5032192;28;8882;-74
2023/08/24 09:09:57;;;;;;;;;2.80;2.80;;;;;;;;5032241;28;8995;-74
2023/08/24 09:12:24;;;;;;;;;2.60;2.00;;;;;;;;5028360;28;9300;-76
2023/08/24 09:14:52;;;;;;;;;1.00;1.00;;;;;;;;5028902;28;8922;-75
2023/08/24 09:17:23;;;;;;;;;1.00;1.00;;;;;;;;5028630;28;9658;-72
2023/08/24 09:19:52;;;;;;;;;2.00;2.00;;;;;;;;5028729;28;8925;-75
2023/08/24 09:22:19;;;;;;;;;2.60;2.60;;;;;;;;5028243;28;8934;-75
2023/08/24 09:24:50;;;;;;;;;1.00;1.00;;;;;;;;5028466;28;8879;-73
2023/08/24 09:27:20;;;;;;;;;2.00;0.00;;;;;;;;5016635;28;8851;-73
2023/08/24 09:29:50;;;;;;;;;2.60;2.00;;;;;;;;5028310;28;8976;-73
2023/08/24 09:32:22;;;;;;;;;1.80;1.80;;;;;;;;5027911;28;9602;-72
2023/08/24 09:34:50;;;;;;;;;0.00;0.00;;;;;;;;5028279;28;8898;-75
2023/08/24 09:37:17;;;;;;;;;2.00;2.00;;;;;;;;5028324;28;9661;-73
2023/08/24 09:39:45;;;;;;;;;2.40;2.40;;;;;;;;5028034;28;8882;-81
2023/08/24 09:42:19;;;;;;;;;4.80;3.20;;;;;;;;5028813;28;8867;-72
2023/08/24 09:44:48;;;;;;;;;4.20;3.60;;;;;;;;5028221;28;9671;-73
2023/08/24 09:47:17;;;;;;;;;2.40;2.20;;;;;;;;5027506;28;8860;-77
2023/08/24 09:49:44;;;;;;;;;2.00;2.00;;;;;;;;5027910;28;8856;-74
2023/08/24 09:52:11;;;;;;;;;3.00;3.00;;;;;;;;5027513;28;8891;-75
2023/08/24 09:54:41;;;;;;;;;5.60;4.00;;;;;;;;5021816;28;8838;-84
2023/08/24 09:57:09;;;;;;;;;3.60;3.60;;;;;;;;5021385;28;8852;-73
2023/08/24 09:59:36;;;;;;;;;2.00;2.00;;;;;;;;5027599;28;8848;-73
2023/08/24 10:02:09;;;;;;;;;3.00;3.00;;;;;;;;5026899;28;8815;-73
2023/08/24 10:04:38;;;;;;;;;5.20;3.00;;;;;;;;5016420;28;8874;-71
2023/08/24 10:07:11;;;;;;;;;3.80;3.80;;;;;;;;5029611;28;8852;-74
2023/08/24 10:09:42;;;;;;;;;3.00;3.00;;;;;;;;5028456;28;8854;-73
2023/08/24 10:12:10;;;;;;;;;4.00;4.00;;;;;;;;5027723;28;9015;-75
2023/08/24 10:14:45;;;;;;;;;5.00;5.00;;;;;;;;5027725;28;9740;-73
2023/08/24 10:17:16;;;;;;;;;5.20;2.00;;;;;;;;5027632;28;8866;-73
2023/08/24 10:19:44;;;;;;;;;4.80;4.80;;;;;;;;5029889;28;8907;-75
2023/08/24 10:22:12;;;;;;;;;3.20;3.20;;;;;;;;5027584;28;9002;-72
2023/08/24 10:24:39;;;;;;;;;4.20;4.00;;;;;;;;5027553;28;9683;-71
2023/08/24 10:27:07;;;;;;;;;4.40;4.40;;;;;;;;5026364;28;8864;-72
2023/08/24 10:29:34;;;;;;;;;3.00;3.00;;;;;;;;5028415;28;8857;-72
2023/08/24 10:32:03;;;;;;;;;6.00;4.20;;;;;;;;5027956;28;8902;-73
2023/08/24 10:34:32;;;;;;;;;5.40;3.00;;;;;;;;5029236;28;8990;-72
2023/08/24 10:37:06;;;;;;;;;5.00;5.00;;;;;;;;5028524;28;8864;-71
2023/08/24 10:39:35;;;;;;;;;6.80;5.20;;;;;;;;5029242;28;8863;-74
2023/08/24 10:42:02;;;;;;;;;3.40;3.20;;;;;;;;5029549;28;8859;-72
2023/08/24 10:44:36;;;;;;;;;6.20;6.20;;;;;;;;5026191;28;8902;-73
2023/08/24 10:47:13;;;;;;;;;6.60;6.00;;;;;;;;5027224;28;8845;-72
2023/08/24 10:49:42;;;;;;;;;4.80;4.80;;;;;;;;5026586;28;8875;-72
2023/08/24 10:52:22;;;;;;;;;8.20;8.20;;;;;;;;5026573;28;8891;-71
2023/08/24 10:54:49;;;;;;;;;9.00;7.60;;;;;;;;5026493;28;8840;-79
2023/08/24 10:57:21;;;;;;;;;10.20;9.20;;;;;;;;5026246;28;8875;-73
2023/08/24 11:00:00;;;;;;;;;10.00;8.80;;;;;;;;5027020;28;8872;-73
2023/08/24 11:02:27;;;;;;;;;4.80;4.80;;;;;;;;5025990;28;8837;-74
2023/08/24 11:05:18;;;;;;;;;9.80;8.00;;;;;;;;5026665;28;8862;-76
2023/08/24 11:07:55;;;;;;;;;10.60;10.60;;;;;;;;5030580;28;9611;-74
2023/08/24 11:10:23;;;;;;;;;9.40;9.40;;;;;;;;5031665;28;8852;-79
2023/08/24 11:13:14;;;;;;;;;9.20;8.40;;;;;;;;5031314;28;8872;-73
2023/08/24 11:15:43;;;;;;;;;9.20;7.60;;;;;;;;5031212;28;8899;-71
2023/08/24 11:18:22;;;;;;;;;11.60;10.00;;;;;;;;5030119;28;8999;-73
2023/08/24 11:20:55;;;;;;;;;8.80;8.80;;;;;;;;5018655;28;9651;-73
2023/08/24 11:23:23;;;;;;;;;11.20;9.80;;;;;;;;5029524;28;9662;-81
2023/08/24 11:25:56;;;;;;;;;10.00;10.00;;;;;;;;5030788;28;9018;-84
2023/08/24 11:28:27;;;;;;;;;11.00;9.00;;;;;;;;5030507;28;8840;-83
2023/08/24 11:30:55;;;;;;;;;9.60;9.60;;;;;;;;5029535;28;9564;-70
2023/08/24 11:33:37;;;;;;;;;11.40;11.40;;;;;;;;5030913;28;8974;-80
2023/08/24 11:36:07;;;;;;;;;10.20;10.20;;;;;;;;5031478;28;8852;-82
2023/08/24 11:38:41;;;;;;;;;10.00;10.00;;;;;;;;5018654;28;8840;-74
2023/08/24 11:41:13;;;;;;;;;12.20;10.60;;;;;;;;5019402;28;8855;-85
2023/08/24 11:43:41;;;;;;;;;10.80;10.80;;;;;;;;5031393;28;8848;-81
2023/08/24 11:46:08;;;;;;;;;11.20;11.00;;;;;;;;5030354;28;8945;-79
2023/08/24 11:48:37;;;;;;;;;9.00;9.00;;;;;;;;5030918;28;8852;-69
2023/08/24 11:51:08;;;;;;;;;10.60;10.20;;;;;;;;5029549;28;8855;-69
2023/08/24 11:53:38;;;;;;;;;11.80;11.80;;;;;;;;5030083;28;8882;-69
2023/08/24 11:56:05;;;;;;;;;10.00;10.00;;;;;;;;5029638;28;8844;-70
2023/08/24 11:58:33;;;;;;;;;10.40;10.40;;;;;;;;5029928;28;9653;-71
2023/08/24 12:01:00;;;;;;;;;10.40;10.00;;;;;;;;5027726;28;8959;-77
2023/08/24 12:03:28;;;;;;;;;13.40;13.40;;;;;;;;5030070;28;8864;-78
2023/08/24 12:05:59;;;;;;;;;8.40;8.40;;;;;;;;5030463;28;8851;-76
2023/08/24 12:08:28;;;;;;;;;12.80;11.60;;;;;;;;5032857;28;8840;-80
2023/08/24 12:10:55;;;;;;;;;10.40;10.40;;;;;;;;5032266;28;8967;-78
2023/08/24 12:13:23;;;;;;;;;11.00;11.00;;;;;;;;5033669;28;8860;-74
2023/08/24 12:15:51;;;;;;;;;11.80;11.60;;;;;;;;5033774;28;8863;-76
2023/08/24 12:18:21;;;;;;;;;10.20;10.20;;;;;;;;5030020;28;8880;-76
2023/08/24 12:20:49;;;;;;;;;11.20;11.20;;;;;;;;5029577;28;8871;-80
2023/08/24 12:23:19;;;;;;;;;11.00;11.00;;;;;;;;5029173;28;8848;-76
2023/08/24 12:25:55;;;;;;;;;12.20;12.20;;;;;;;;5018299;28;8872;-77
2023/08/24 12:28:22;;;;;;;;;12.00;10.80;;;;;;;;5029367;28;8887;-78
2023/08/24 12:30:50;;;;;;;;;15.40;11.20;;;;;;;;5029187;28;8784;-79
2023/08/24 12:33:25;;;;;;;;;7.80;7.80;;;;;;;;5029119;28;8863;-79
2023/08/24 12:35:52;;;;;;;;;13.20;13.20;;;;;;;;5030801;28;9677;-75
2023/08/24 12:38:20;;;;;;;;;13.00;12.60;;;;;;;;5027762;28;8874;-73
2023/08/24 12:40:51;;;;;;;;;14.80;13.60;;;;;;;;5029756;28;8846;-73
2023/08/24 12:43:19;;;;;;;;;15.00;15.00;;;;;;;;5028825;28;8860;-75
2023/08/24 12:45:46;;;;;;;;;15.60;14.00;;;;;;;;5029612;28;9724;-73
2023/08/24 12:48:13;;;;;;;;;11.20;11.00;;;;;;;;5028608;28;10039;-74
2023/08/24 12:50:40;;;;;;;;;12.40;12.40;;;;;;;;5028787;28;8873;-73
2023/08/24 12:53:10;;;;;;;;;12.20;11.60;;;;;;;;5028281;28;8945;-75
2023/08/24 12:55:39;;;;;;;;;12.20;11.40;;;;;;;;5029819;28;8852;-86
2023/08/24 12:58:08;;;;;;;;;13.00;13.00;;;;;;;;5029495;28;8880;-76
2023/08/24 13:00:36;;;;;;;;;14.20;12.20;;;;;;;;5029288;28;8842;-81
2023/08/24 13:03:03;;;;;;;;;12.40;12.00;;;;;;;;5028774;28;9018;-74
2023/08/24 13:05:30;;;;;;;;;11.80;11.60;;;;;;;;5028843;28;8856;-82
2023/08/24 13:07:57;;;;;;;;;10.60;10.60;;;;;;;;5028473;28;8845;-77
2023/08/24 13:10:25;;;;;;;;;8.40;6.40;;;;;;;;5031259;28;8895;-75
2023/08/24 13:12:52;;;;;;;;;10.80;10.80;;;;;;;;5030594;28;8878;-79
2023/08/24 13:15:21;;;;;;;;;8.60;8.60;;;;;;;;5028843;28;8893;-80
2023/08/24 13:17:48;;;;;;;;;11.20;11.20;;;;;;;;5028831;28;8915;-73
2023/08/24 13:20:17;;;;;;;;;9.60;9.60;;;;;;;;5027789;28;9135;-73
2023/08/24 13:22:44;;;;;;;;;11.40;11.40;;;;;;;;5028143;28;8856;-74
2023/08/24 13:25:12;;;;;;;;;12.00;10.00;;;;;;;;5027989;28;9619;-73
2023/08/24 13:27:39;;;;;;;;;11.60;11.60;;;;;;;;5028902;28;8860;-73
2023/08/24 13:30:07;;;;;;;;;12.00;12.00;;;;;;;;5027244;28;8848;-74
2023/08/24 13:32:36;;;;;;;;;11.40;11.40;;;;;;;;5028324;28;9814;-73
2023/08/24 13:35:03;;;;;;;;;13.00;13.00;;;;;;;;5027990;28;8846;-75
2023/08/24 13:37:30;;;;;;;;;12.80;12.80;;;;;;;;5027619;28;8848;-76
2023/08/24 13:39:59;;;;;;;;;14.40;13.60;;;;;;;;5028785;28;8872;-74
2023/08/24 13:42:27;;;;;;;;;13.20;12.00;;;;;;;;5030775;28;8869;-73
2023/08/24 13:44:54;;;;;;;;;12.40;12.40;;;;;;;;5030253;28;8850;-73
2023/08/24 13:47:21;;;;;;;;;15.40;15.40;;;;;;;;5030094;28;8966;-73
2023/08/24 13:49:50;;;;;;;;;13.00;11.40;;;;;;;;5031044;28;8838;-74
2023/08/24 13:52:18;;;;;;;;;15.40;13.20;;;;;;;;5030390;28;8963;-78
2023/08/24 13:54:46;;;;;;;;;14.00;14.00;;;;;;;;5027457;28;8872;-79
2023/08/24 13:57:13;;;;;;;;;14.40;14.40;;;;;;;;5028071;28;8868;-76
2023/08/24 13:59:41;;;;;;;;;13.80;13.80;;;;;;;;5028447;28;8870;-74
2023/08/24 14:02:08;;;;;;;;;14.40;12.80;;;;;;;;5027355;28;8817;-79
2023/08/24 14:04:35;;;;;;;;;16.00;16.00;;;;;;;;5028242;28;8864;-77
2023/08/24 14:07:03;;;;;;;;;14.00;12.00;;;;;;;;5027399;28;8856;-75
2023/08/24 14:09:33;;;;;;;;;13.00;11.40;;;;;;;;5027822;28;8926;-76
2023/08/24 14:12:00;;;;;;;;;13.40;13.40;;;;;;;;5027732;28;8848;-77
2023/08/24 14:14:28;;;;;;;;;12.60;12.60;;;;;;;;5027922;28;8886;-74
2023/08/24 14:16:56;;;;;;;;;14.80;14.40;;;;;;;;5027968;28;8850;-77
2023/08/24 14:19:23;;;;;;;;;14.00;14.00;;;;;;;;5020809;28;8862;-83
2023/08/24 14:21:53;;;;;;;;;16.20;16.20;;;;;;;;5024532;28;8875;-80
2023/08/24 14:24:22;;;;;;;;;10.40;10.40;;;;;;;;5028014;28;8872;-81
2023/08/24 14:26:50;;;;;;;;;16.20;14.20;;;;;;;;5027377;28;8884;-87
2023/08/24 14:29:17;;;;;;;;;13.00;13.00;;;;;;;;5027613;28;8878;-77
2023/08/24 14:31:44;;;;;;;;;11.40;11.40;;;;;;;;5027161;28;8834;-81
2023/08/24 14:34:11;;;;;;;;;12.60;12.60;;;;;;;;5027625;28;9680;-72
2023/08/24 14:36:39;;;;;;;;;11.00;11.00;;;;;;;;5028085;28;8984;-79
2023/08/24 14:39:07;;;;;;;;;14.00;14.00;;;;;;;;5027575;28;8967;-75
2023/08/24 14:41:35;;;;;;;;;12.80;12.80;;;;;;;;5029586;28;8850;-80
2023/08/24 14:44:05;;;;;;;;;12.40;12.40;;;;;;;;5031513;28;8864;-75
2023/08/24 14:46:35;;;;;;;;;14.20;12.40;;;;;;;;5031560;28;8966;-79
2023/08/24 14:49:05;;;;;;;;;11.80;11.80;;;;;;;;5031530;28;8860;-77
2023/08/24 14:51:34;;;;;;;;;13.00;12.00;;;;;;;;5031288;28;8879;-79
2023/08/24 14:54:01;;;;;;;;;12.40;12.40;;;;;;;;5030761;28;9269;-77
2023/08/24 14:56:28;;;;;;;;;11.80;11.80;;;;;;;;5031572;28;8974;-74
2023/08/24 14:58:57;;;;;;;;;12.00;11.80;;;;;;;;5017746;28;8839;-71